Time;durP1;ratioP1;P1;durP2;ratioP2;P2;SDS_P1;SDS_P2;PMS_P1;PMS_P2;Temp;Humidity;BMP_temperature;BMP_pressure;BME280_temperature;BME280_humidity;BME280_pressure;Samples;Min_cycle;Max_cycle;Signal;HPM_P1;HPM_P2
2021/01/04 00:00:34;;;;;;;35.30;24.90;;;3.70;99.90;;;;;;5132480;28;20449;-26
2021/01/04 00:03:22;;;;;;;33.77;23.83;;;3.60;99.90;;;;;;5134275;27;20466;-26
2021/01/04 00:06:00;;;;;;;36.33;23.80;;;3.60;99.90;;;;;;5153026;27;20497;-26
2021/01/04 00:08:47;;;;;;;33.00;23.30;;;3.60;99.90;;;;;;5150536;27;20452;-26
2021/01/04 00:11:31;;;;;;;31.07;22.27;;;3.60;99.90;;;;;;5152174;27;20487;-26
2021/01/04 00:14:11;;;;;;;35.30;23.43;;;3.50;99.90;;;;;;5140566;27;20438;-26
2021/01/04 00:16:46;;;;;;;37.90;25.00;;;3.40;99.90;;;;;;5127588;28;20425;-26
2021/01/04 00:19:19;;;;;;;31.70;23.47;;;3.30;99.90;;;;;;5110141;28;20484;-26
2021/01/04 00:21:58;;;;;;;35.70;26.23;;;3.20;99.90;;;;;;5130303;28;20506;-26
2021/01/04 00:24:33;;;;;;;38.23;23.20;;;3.20;99.90;;;;;;5131881;27;20493;-25
2021/01/04 00:27:04;;;;;;;34.00;25.20;;;3.30;99.90;;;;;;5139062;27;20452;-25
2021/01/04 00:29:31;;;;;;;33.03;22.60;;;3.30;99.90;;;;;;5153589;27;20433;-26
2021/01/04 00:32:02;;;;;;;35.60;24.20;;;3.30;99.90;;;;;;5153997;27;20694;-26
2021/01/04 00:34:38;;;;;;;35.20;25.40;;;3.20;99.90;;;;;;5145629;27;20449;-26
2021/01/04 00:37:32;;;;;;;39.03;26.63;;;3.10;99.90;;;;;;5133643;28;20534;-26
2021/01/04 00:40:04;;;;;;;32.23;23.97;;;3.10;99.90;;;;;;5133722;28;20458;-26
2021/01/04 00:42:38;;;;;;;37.23;24.13;;;3.10;99.90;;;;;;5147264;27;20468;-26
2021/01/04 00:45:13;;;;;;;34.27;24.17;;;3.20;99.90;;;;;;5153451;27;20461;-26
2021/01/04 00:47:53;;;;;;;32.53;23.00;;;3.20;99.90;;;;;;5154799;27;20467;-26
2021/01/04 00:50:27;;;;;;;32.10;24.03;;;3.20;99.90;;;;;;5148586;27;20438;-26
2021/01/04 00:53:02;;;;;;;32.80;21.60;;;3.30;99.90;;;;;;5136098;27;20811;-27
2021/01/04 00:55:50;;;;;;;32.77;24.47;;;3.40;99.90;;;;;;5135369;27;20464;-26
2021/01/04 00:58:52;;;;;;;35.13;24.77;;;3.40;99.90;;;;;;5117306;27;20438;-25
2021/01/04 01:01:27;;;;;;;32.43;23.23;;;3.40;99.90;;;;;;5153587;27;20441;-26
2021/01/04 01:04:04;;;;;;;34.03;24.80;;;3.40;99.90;;;;;;5156984;27;20483;-26
2021/01/04 01:06:42;;;;;;;35.73;23.43;;;3.50;99.90;;;;;;5156838;27;20421;-26
2021/01/04 01:09:11;;;;;;;38.60;24.77;;;3.50;99.90;;;;;;5156519;27;20437;-26
2021/01/04 01:11:58;;;;;;;36.67;23.10;;;3.50;99.90;;;;;;5136996;27;20454;-25
2021/01/04 01:14:30;;;;;;;34.10;24.50;;;3.60;99.90;;;;;;5136421;27;20503;-26
2021/01/04 01:17:12;;;;;;;35.30;23.70;;;3.60;99.90;;;;;;5134010;27;20476;-26
2021/01/04 01:19:45;;;;;;;38.80;23.20;;;3.60;99.90;;;;;;5114468;27;20679;-26
2021/01/04 01:22:31;;;;;;;34.53;24.37;;;3.60;99.90;;;;;;5134713;27;20762;-26
2021/01/04 01:25:05;;;;;;;34.23;23.03;;;3.60;99.90;;;;;;5153943;27;20735;-26
2021/01/04 01:28:10;;;;;;;37.07;23.73;;;3.60;99.90;;;;;;5156122;27;21107;-26
2021/01/04 01:30:52;;;;;;;34.47;23.03;;;3.60;99.90;;;;;;5113073;27;20484;-26
2021/01/04 01:34:00;;;;;;;30.73;22.90;;;3.70;99.90;;;;;;5135180;27;20442;-26
2021/01/04 01:36:41;;;;;;;32.80;23.50;;;3.70;99.90;;;;;;5135963;27;20462;-26
2021/01/04 01:39:31;;;;;;;30.23;20.97;;;3.70;99.90;;;;;;5135039;27;20445;-26
2021/01/04 01:42:28;;;;;;;33.97;23.73;;;3.70;99.90;;;;;;5153506;27;20453;-27
2021/01/04 01:45:06;;;;;;;31.10;22.00;;;3.70;99.90;;;;;;5156071;27;20457;-26
2021/01/04 01:47:52;;;;;;;32.73;22.20;;;3.70;99.90;;;;;;5156925;27;20437;-25
2021/01/04 01:50:35;;;;;;;30.67;22.70;;;3.70;99.90;;;;;;5152289;27;20453;-26
2021/01/04 01:53:11;;;;;;;27.80;21.07;;;3.70;99.90;;;;;;5132596;27;20445;-26
2021/01/04 01:56:14;;;;;;;35.33;22.93;;;3.70;99.90;;;;;;5132913;27;20468;-26
2021/01/04 01:59:07;;;;;;;30.37;22.20;;;3.70;99.90;;;;;;5128843;27;20468;-26
2021/01/04 02:01:43;;;;;;;32.43;23.07;;;3.70;99.90;;;;;;5134337;27;20453;-26
2021/01/04 02:04:20;;;;;;;28.03;20.20;;;3.70;99.90;;;;;;5135139;27;20508;-26
2021/01/04 02:07:09;;;;;;;31.33;23.73;;;3.70;99.90;;;;;;5133247;27;20429;-26
2021/01/04 02:09:42;;;;;;;33.23;23.00;;;3.60;99.90;;;;;;5134730;27;20430;-26
2021/01/04 02:12:16;;;;;;;30.73;21.60;;;3.60;99.90;;;;;;5148252;27;20449;-26
2021/01/04 02:14:55;;;;;;;35.80;23.47;;;3.60;99.90;;;;;;5154269;27;20483;-26
2021/01/04 02:17:36;;;;;;;32.23;22.40;;;3.60;99.90;;;;;;5154722;27;21106;-26
2021/01/04 02:20:22;;;;;;;28.27;19.93;;;3.60;99.90;;;;;;5154936;27;20476;-28
2021/01/04 02:23:11;;;;;;;33.93;23.87;;;3.50;99.90;;;;;;5136398;27;20442;-25
2021/01/04 02:25:43;;;;;;;30.27;21.97;;;3.50;99.90;;;;;;5135114;27;20446;-28
2021/01/04 02:28:14;;;;;;;30.47;22.63;;;3.50;99.90;;;;;;5134713;27;20435;-26
2021/01/04 02:30:41;;;;;;;31.73;23.10;;;3.50;99.90;;;;;;5134813;27;20438;-26
2021/01/04 02:33:10;;;;;;;28.73;22.40;;;3.50;99.90;;;;;;5155618;27;20726;-26
2021/01/04 02:35:40;;;;;;;33.03;22.60;;;3.50;99.90;;;;;;5155188;27;20529;-26
2021/01/04 02:38:07;;;;;;;30.70;21.90;;;3.50;99.90;;;;;;5155463;27;20472;-26
2021/01/04 02:40:34;;;;;;;29.50;22.07;;;3.50;99.90;;;;;;5155666;27;20441;-26
2021/01/04 02:43:02;;;;;;;33.43;22.30;;;3.50;99.90;;;;;;5132152;27;20816;-26
2021/01/04 02:45:31;;;;;;;37.40;21.90;;;3.60;99.90;;;;;;5131420;27;20550;-26
2021/01/04 02:48:20;;;;;;;31.57;22.23;;;3.60;99.90;;;;;;5134051;27;20541;-27
2021/01/04 02:50:56;;;;;;;35.90;23.40;;;3.60;99.90;;;;;;5134516;27;20437;-26
2021/01/04 02:53:56;;;;;;;32.63;22.70;;;3.60;99.90;;;;;;5134814;27;20434;-27
2021/01/04 02:56:39;;;;;;;30.13;20.70;;;3.50;99.90;;;;;;5117709;27;20508;-26
2021/01/04 02:59:25;;;;;;;33.17;21.97;;;3.50;99.90;;;;;;5133574;27;20434;-26
2021/01/04 03:01:59;;;;;;;30.30;20.70;;;3.50;99.90;;;;;;5134613;27;20545;-26
2021/01/04 03:04:27;;;;;;;31.00;21.40;;;3.50;99.90;;;;;;5134095;27;20489;-27
2021/01/04 03:07:00;;;;;;;27.47;20.23;;;3.50;99.90;;;;;;5136898;27;20813;-28
2021/01/04 03:09:42;;;;;;;33.90;22.80;;;3.50;99.90;;;;;;5155076;27;20434;-27
2021/01/04 03:16:05;;;;;;;30.73;21.40;;;3.50;99.90;;;;;;5134266;27;20540;-27
2021/01/04 03:18:39;;;;;;;34.97;23.07;;;3.50;99.90;;;;;;5135178;27;20852;-26
2021/01/04 03:21:06;;;;;;;32.27;20.73;;;3.50;99.90;;;;;;5135649;27;21032;-28
2021/01/04 03:23:34;;;;;;;33.37;22.90;;;3.50;99.90;;;;;;5137598;27;20469;-27
2021/01/04 03:26:06;;;;;;;32.20;21.73;;;3.50;99.90;;;;;;5155653;27;20445;-27
2021/01/04 03:28:33;;;;;;;35.93;23.23;;;3.60;99.90;;;;;;5154059;27;20929;-27
2021/01/04 03:31:02;;;;;;;26.80;20.10;;;3.50;99.90;;;;;;5155293;27;20508;-27
2021/01/04 03:33:32;;;;;;;30.57;21.10;;;3.40;99.90;;;;;;5154016;27;20433;-29
2021/01/04 03:35:59;;;;;;;33.33;24.23;;;3.40;99.90;;;;;;5152176;27;20514;-26
2021/01/04 03:38:26;;;;;;;36.00;22.67;;;3.40;99.90;;;;;;5151181;27;20444;-28
2021/01/04 03:40:52;;;;;;;34.60;23.87;;;3.30;99.90;;;;;;5152392;27;20547;-28
2021/01/04 03:43:19;;;;;;;33.33;21.83;;;3.40;99.90;;;;;;5152699;27;20452;-28
2021/01/04 03:45:46;;;;;;;32.13;20.33;;;3.40;99.90;;;;;;5152653;27;20471;-27
2021/01/04 03:48:14;;;;;;;32.53;22.00;;;3.40;99.90;;;;;;5154578;27;20821;-29
2021/01/04 03:50:41;;;;;;;33.27;23.10;;;3.50;99.90;;;;;;5155602;27;20436;-27
2021/01/04 03:53:07;;;;;;;35.33;22.43;;;3.50;99.90;;;;;;5154888;27;20433;-27
2021/01/04 03:55:37;;;;;;;31.67;22.57;;;3.60;99.90;;;;;;5141317;27;20446;-27
2021/01/04 03:58:04;;;;;;;35.00;22.50;;;3.60;99.90;;;;;;5135266;28;20456;-28
2021/01/04 04:00:30;;;;;;;28.10;20.70;;;3.60;99.90;;;;;;5134770;28;20430;-26
2021/01/04 04:02:59;;;;;;;25.03;19.40;;;3.50;99.90;;;;;;5133396;28;20465;-27
2021/01/04 04:05:27;;;;;;;28.53;20.40;;;3.50;99.90;;;;;;5143562;27;20488;-27
2021/01/04 04:07:55;;;;;;;28.87;21.87;;;3.50;99.90;;;;;;5154336;27;20437;-27
2021/01/04 04:10:21;;;;;;;28.87;20.63;;;3.50;99.90;;;;;;5153381;27;20453;-27
2021/01/04 04:12:48;;;;;;;27.97;19.67;;;3.60;99.90;;;;;;5153082;27;20434;-26
2021/01/04 04:15:18;;;;;;;24.70;19.70;;;3.60;99.90;;;;;;5144458;27;20434;-27
2021/01/04 04:17:45;;;;;;;35.27;22.90;;;3.60;99.90;;;;;;5112659;28;20449;-27
2021/01/04 04:20:14;;;;;;;27.23;19.93;;;3.60;99.90;;;;;;5130005;28;20736;-27
2021/01/04 04:22:42;;;;;;;29.40;20.10;;;3.60;99.90;;;;;;5131646;27;20433;-27
2021/01/04 04:25:13;;;;;;;28.37;20.60;;;3.60;99.90;;;;;;5117473;27;20469;-28
2021/01/04 04:27:39;;;;;;;26.93;19.90;;;3.50;99.90;;;;;;5137027;27;20437;-26
2021/01/04 04:30:08;;;;;;;33.57;20.20;;;3.50;99.90;;;;;;5136816;27;20442;-26
2021/01/04 04:32:35;;;;;;;30.63;21.80;;;3.50;99.90;;;;;;5136735;27;20952;-27
2021/01/04 04:35:01;;;;;;;33.50;20.10;;;3.50;99.90;;;;;;5118879;27;20441;-27
2021/01/04 04:37:29;;;;;;;29.77;21.27;;;3.50;99.90;;;;;;5156413;27;20499;-27
2021/01/04 04:39:58;;;;;;;28.67;20.27;;;3.50;99.90;;;;;;5156821;27;20466;-26
2021/01/04 04:42:25;;;;;;;29.97;20.83;;;3.50;99.90;;;;;;5156805;27;20448;-27
2021/01/04 04:44:58;;;;;;;29.67;21.13;;;3.40;99.90;;;;;;5156839;27;20459;-27
2021/01/04 04:47:36;;;;;;;28.20;20.37;;;3.40;99.90;;;;;;5136098;27;20480;-28
2021/01/04 04:50:14;;;;;;;28.90;20.43;;;3.40;99.90;;;;;;5136225;27;20430;-27
2021/01/04 04:53:01;;;;;;;31.13;20.67;;;3.40;99.90;;;;;;5120439;27;20510;-26
2021/01/04 04:55:45;;;;;;;29.07;20.23;;;3.40;99.90;;;;;;5136037;27;20450;-26
2021/01/04 04:58:41;;;;;;;36.73;23.20;;;3.40;99.90;;;;;;5135607;27;20441;-27
2021/01/04 05:01:27;;;;;;;33.40;21.33;;;3.50;99.90;;;;;;5135472;27;20434;-27
2021/01/04 05:04:21;;;;;;;28.43;22.20;;;3.50;99.90;;;;;;5136272;27;20465;-27
2021/01/04 05:06:49;;;;;;;27.70;21.43;;;3.50;99.90;;;;;;5133804;27;21062;-28
2021/01/04 05:09:49;;;;;;;26.03;20.30;;;3.50;99.90;;;;;;5135011;27;20796;-30
2021/01/04 05:12:35;;;;;;;30.43;21.00;;;3.50;99.90;;;;;;5119545;27;20470;-28
2021/01/04 05:15:18;;;;;;;30.43;20.60;;;3.50;99.90;;;;;;5151184;27;20720;-27
2021/01/04 05:18:23;;;;;;;25.57;18.50;;;3.50;99.90;;;;;;5151272;27;20850;-27
2021/01/04 05:21:14;;;;;;;30.13;22.47;;;3.50;99.90;;;;;;5151235;27;20426;-26
2021/01/04 05:24:12;;;;;;;29.27;19.53;;;3.50;99.90;;;;;;5150189;27;20460;-26
2021/01/04 05:27:07;;;;;;;31.70;21.17;;;3.50;99.90;;;;;;5144014;27;20450;-26
2021/01/04 05:30:01;;;;;;;26.97;19.67;;;3.60;99.90;;;;;;5134087;27;20439;-27
2021/01/04 05:33:06;;;;;;;30.87;21.10;;;3.60;99.90;;;;;;5133349;27;20456;-27
2021/01/04 05:35:35;;;;;;;26.83;19.17;;;3.60;99.90;;;;;;5143534;27;20731;-27
2021/01/04 05:38:11;;;;;;;28.00;21.17;;;3.60;99.90;;;;;;5153501;27;20490;-26
2021/01/04 05:41:04;;;;;;;27.33;18.53;;;3.60;99.90;;;;;;5152690;27;20471;-27
2021/01/04 05:43:43;;;;;;;28.90;20.27;;;3.60;99.90;;;;;;5150400;27;20433;-28
2021/01/04 05:46:19;;;;;;;32.33;20.50;;;3.60;99.90;;;;;;5137445;27;20445;-26
2021/01/04 05:49:02;;;;;;;32.30;21.87;;;3.60;99.90;;;;;;5131222;27;21085;-27
2021/01/04 05:51:32;;;;;;;30.40;20.93;;;3.60;99.90;;;;;;5128189;27;20495;-26
2021/01/04 05:53:58;;;;;;;24.70;18.80;;;3.60;99.90;;;;;;5126775;27;20438;-26
2021/01/04 05:56:29;;;;;;;32.83;22.50;;;3.60;99.90;;;;;;5128622;27;20442;-27
2021/01/04 05:59:07;;;;;;;27.50;20.20;;;3.50;99.90;;;;;;5133241;27;20514;-27
2021/01/04 06:01:34;;;;;;;31.00;19.13;;;3.50;99.90;;;;;;5146545;27;20448;-28
2021/01/04 06:04:02;;;;;;;31.30;21.47;;;3.50;99.90;;;;;;5144995;27;20487;-27
2021/01/04 06:06:33;;;;;;;30.10;19.00;;;3.60;99.90;;;;;;5141748;27;20444;-29
2021/01/04 06:09:02;;;;;;;31.47;21.23;;;3.50;99.90;;;;;;5144380;27;20444;-27
2021/01/04 06:11:28;;;;;;;30.60;19.63;;;3.50;99.90;;;;;;5144466;27;20460;-32
2021/01/04 06:14:03;;;;;;;33.33;21.30;;;3.50;99.90;;;;;;5143078;27;20770;-27
2021/01/04 06:16:29;;;;;;;29.87;21.63;;;3.50;99.90;;;;;;5130601;27;20958;-27
2021/01/04 06:19:09;;;;;;;26.53;18.90;;;3.50;99.90;;;;;;5122551;27;20482;-27
2021/01/04 06:21:46;;;;;;;31.00;19.47;;;3.50;99.90;;;;;;5121326;27;20429;-27
2021/01/04 06:24:22;;;;;;;27.27;19.23;;;3.60;99.90;;;;;;5122228;27;21167;-27
2021/01/04 06:26:52;;;;;;;31.20;21.00;;;3.60;99.90;;;;;;5129327;27;20448;-28
2021/01/04 06:29:34;;;;;;;31.33;21.70;;;3.60;99.90;;;;;;5133113;27;20435;-27
2021/01/04 06:32:03;;;;;;;29.13;20.40;;;3.60;99.90;;;;;;5138177;27;20437;-27
2021/01/04 06:34:35;;;;;;;33.03;21.37;;;3.60;99.90;;;;;;5135357;27;20502;-27
2021/01/04 06:37:11;;;;;;;29.00;20.17;;;3.60;99.90;;;;;;5139482;27;20437;-28
2021/01/04 06:39:38;;;;;;;27.30;19.47;;;3.60;99.90;;;;;;5139851;27;20509;-27
2021/01/04 06:42:15;;;;;;;29.43;19.90;;;3.60;99.90;;;;;;5133331;27;20446;-26
2021/01/04 06:44:57;;;;;;;30.00;19.00;;;3.70;99.90;;;;;;5119497;27;20755;-28
2021/01/04 06:47:49;;;;;;;28.37;19.93;;;3.60;99.90;;;;;;5114254;27;20495;-27
2021/01/04 06:50:26;;;;;;;31.73;21.00;;;3.60;99.90;;;;;;5111683;27;20458;-26
2021/01/04 06:53:48;;;;;;;31.30;20.20;;;3.60;99.90;;;;;;5116455;27;20889;-28
2021/01/04 06:56:35;;;;;;;27.27;18.80;;;3.60;99.90;;;;;;5109307;27;20577;-26
2021/01/04 06:59:42;;;;;;;34.60;20.87;;;3.60;99.90;;;;;;5116556;27;20449;-27
2021/01/04 07:02:33;;;;;;;30.03;20.23;;;3.60;99.90;;;;;;5059792;27;20895;-26
2021/01/04 07:05:24;;;;;;;31.53;20.77;;;3.50;99.90;;;;;;5110012;27;20472;-27
2021/01/04 07:08:19;;;;;;;29.10;21.23;;;3.50;99.90;;;;;;5131979;27;20860;-28
2021/01/04 07:11:09;;;;;;;29.77;18.97;;;3.50;99.90;;;;;;5094766;27;20457;-26
2021/01/04 07:14:01;;;;;;;31.30;21.40;;;3.30;99.90;;;;;;5119417;27;20438;-27
2021/01/04 07:16:54;;;;;;;30.90;20.00;;;3.30;99.90;;;;;;5108195;27;20442;-27
2021/01/04 07:19:57;;;;;;;32.00;21.37;;;3.40;99.90;;;;;;5108488;27;21132;-27
2021/01/04 07:22:37;;;;;;;27.50;19.40;;;3.50;99.90;;;;;;5019836;28;21367;-28
2021/01/04 07:25:16;;;;;;;30.40;21.37;;;3.50;99.90;;;;;;5045416;28;20637;-27
2021/01/04 07:27:50;;;;;;;32.70;19.60;;;3.60;99.90;;;;;;5124979;27;20459;-27
2021/01/04 07:30:33;;;;;;;29.13;21.80;;;3.60;99.90;;;;;;5125947;27;20779;-27
2021/01/04 07:33:05;;;;;;;26.97;18.40;;;3.60;99.90;;;;;;5127136;27;20437;-27
2021/01/04 07:35:37;;;;;;;30.87;20.90;;;3.60;99.90;;;;;;5109291;27;20514;-28
2021/01/04 07:38:20;;;;;;;29.60;21.20;;;3.60;99.90;;;;;;5103340;27;21106;-27
2021/01/04 07:41:00;;;;;;;29.80;20.43;;;3.60;99.90;;;;;;5107570;27;20450;-30
2021/01/04 07:43:56;;;;;;;32.57;22.93;;;3.70;99.90;;;;;;5110077;27;20438;-27
2021/01/04 07:47:15;;;;;;;31.10;21.97;;;3.70;99.90;;;;;;5109760;27;20437;-28
2021/01/04 07:50:01;;;;;;;36.77;24.47;;;3.80;99.90;;;;;;5028184;28;20492;-26
2021/01/04 07:53:06;;;;;;;38.97;24.53;;;3.80;99.90;;;;;;5107249;27;20441;-28
2021/01/04 07:55:54;;;;;;;31.97;23.60;;;3.80;99.90;;;;;;5109985;27;20445;-28
2021/01/04 07:58:49;;;;;;;32.67;22.63;;;3.70;99.90;;;;;;5110105;27;20445;-27
2021/01/04 08:01:50;;;;;;;36.17;23.90;;;3.60;99.90;;;;;;5096853;27;20490;-29
2021/01/04 08:05:00;;;;;;;38.70;24.27;;;3.60;99.90;;;;;;5079355;28;20462;-29
2021/01/04 08:08:11;;;;;;;33.47;23.57;;;3.50;99.90;;;;;;5087949;28;20445;-27
2021/01/04 08:11:04;;;;;;;35.37;21.17;;;3.60;99.90;;;;;;5067692;28;20454;-27
2021/01/04 08:14:19;;;;;;;32.53;22.70;;;3.50;99.90;;;;;;5086949;28;20546;-27
2021/01/04 08:16:50;;;;;;;33.07;23.07;;;3.60;99.90;;;;;;5080434;28;20571;-27
2021/01/04 08:19:20;;;;;;;35.20;21.63;;;3.70;99.90;;;;;;5089089;28;20547;-27
2021/01/04 08:21:56;;;;;;;37.00;25.20;;;3.80;99.90;;;;;;5084365;28;20446;-26
2021/01/04 08:24:30;;;;;;;37.03;23.97;;;3.90;99.90;;;;;;5064991;28;20467;-27
2021/01/04 08:27:12;;;;;;;35.40;23.40;;;3.80;99.90;;;;;;5078165;28;20435;-26
2021/01/04 08:29:54;;;;;;;32.67;23.63;;;3.80;99.90;;;;;;5091560;28;21354;-28
2021/01/04 08:32:28;;;;;;;33.40;22.67;;;3.80;99.90;;;;;;5092429;28;20442;-28
2021/01/04 08:35:10;;;;;;;35.83;24.10;;;3.90;99.90;;;;;;5090993;28;20444;-27
2021/01/04 08:37:39;;;;;;;37.30;24.70;;;3.90;99.90;;;;;;5090362;28;20490;-27
2021/01/04 08:40:23;;;;;;;35.37;21.30;;;3.90;99.90;;;;;;5092012;28;20933;-27
2021/01/04 08:43:08;;;;;;;38.87;24.97;;;3.90;99.90;;;;;;5086875;28;20439;-27
2021/01/04 08:45:45;;;;;;;33.87;22.10;;;4.00;99.90;;;;;;5078509;28;20930;-28
2021/01/04 08:48:17;;;;;;;32.40;21.53;;;4.00;99.90;;;;;;5096832;27;20493;-27
2021/01/04 08:50:46;;;;;;;31.00;23.10;;;4.00;99.90;;;;;;5107398;27;20442;-28
2021/01/04 08:53:22;;;;;;;30.40;20.77;;;4.00;99.90;;;;;;5096901;27;20496;-28
2021/01/04 08:55:52;;;;;;;29.87;21.53;;;4.10;99.90;;;;;;5094161;27;20477;-27
2021/01/04 08:58:32;;;;;;;32.20;21.60;;;4.10;99.90;;;;;;5086800;28;20427;-28
2021/01/04 09:01:02;;;;;;;32.30;22.03;;;4.20;99.90;;;;;;5083849;28;21009;-27
2021/01/04 09:03:49;;;;;;;34.33;21.40;;;4.30;99.90;;;;;;5105925;27;20496;-28
2021/01/04 09:06:38;;;;;;;32.30;21.93;;;4.30;99.90;;;;;;5095248;27;20436;-28
2021/01/04 09:09:12;;;;;;;32.30;22.70;;;4.40;99.90;;;;;;5098201;27;20444;-27
2021/01/04 09:11:50;;;;;;;28.57;20.87;;;4.50;99.90;;;;;;5104156;27;20445;-27
2021/01/04 09:14:26;;;;;;;27.50;21.30;;;4.50;99.90;;;;;;5118372;27;20493;-28
2021/01/04 09:16:55;;;;;;;29.70;20.50;;;4.50;99.90;;;;;;5117578;27;20594;-28
2021/01/04 09:19:30;;;;;;;32.13;20.50;;;4.50;99.90;;;;;;5101958;27;20531;-28
2021/01/04 09:22:10;;;;;;;34.30;21.80;;;4.60;99.90;;;;;;5108501;27;20528;-28
2021/01/04 09:24:40;;;;;;;31.80;21.90;;;4.50;99.90;;;;;;5105425;27;20513;-28
2021/01/04 09:27:30;;;;;;;28.50;21.10;;;4.50;99.90;;;;;;5123548;27;20861;-28
2021/01/04 09:30:04;;;;;;;31.30;21.60;;;4.50;99.90;;;;;;5110233;27;21234;-28
2021/01/04 09:32:39;;;;;;;31.13;21.90;;;4.50;99.90;;;;;;5114865;27;20458;-28
2021/01/04 09:35:10;;;;;;;30.80;21.43;;;4.40;99.90;;;;;;5110965;27;20446;-28
2021/01/04 09:37:38;;;;;;;34.00;22.87;;;4.30;99.90;;;;;;5108385;27;20441;-27
2021/01/04 09:40:10;;;;;;;28.90;21.57;;;4.20;99.90;;;;;;5105280;27;20450;-27
2021/01/04 09:42:39;;;;;;;29.40;20.80;;;4.20;99.90;;;;;;5108953;27;20442;-30
2021/01/04 09:45:14;;;;;;;31.53;20.57;;;4.10;99.90;;;;;;5110565;27;21008;-27
2021/01/04 09:47:47;;;;;;;29.87;20.77;;;4.10;99.90;;;;;;5122912;27;21169;-27
2021/01/04 09:50:22;;;;;;;32.80;21.33;;;4.00;99.90;;;;;;5113763;27;21182;-30
2021/01/04 09:52:56;;;;;;;31.70;21.97;;;4.00;99.90;;;;;;5112486;27;20547;-29
2021/01/04 09:55:32;;;;;;;26.73;19.90;;;3.90;99.90;;;;;;5113176;27;20755;-28
2021/01/04 09:58:00;;;;;;;30.20;21.50;;;3.90;99.90;;;;;;5113458;27;20454;-30
2021/01/04 10:00:34;;;;;;;32.20;20.33;;;4.00;99.90;;;;;;5091783;27;20486;-31
2021/01/04 10:03:08;;;;;;;23.77;18.27;;;4.20;99.90;;;;;;5094209;27;20887;-28
2021/01/04 10:05:38;;;;;;;26.70;19.33;;;4.40;99.90;;;;;;5080755;27;20479;-28
2021/01/04 10:08:14;;;;;;;23.20;17.77;;;4.60;99.90;;;;;;5103918;27;20545;-28
2021/01/04 10:10:56;;;;;;;21.30;16.47;;;4.70;99.90;;;;;;5102701;27;20553;-29
2021/01/04 10:13:24;;;;;;;21.90;16.00;;;4.80;99.90;;;;;;5097282;27;20499;-28
2021/01/04 10:15:55;;;;;;;27.43;18.40;;;4.90;99.90;;;;;;5101891;27;20459;-28
2021/01/04 10:18:43;;;;;;;21.57;16.30;;;4.80;99.90;;;;;;5096576;27;20442;-32
2021/01/04 10:21:16;;;;;;;24.63;16.97;;;4.90;99.90;;;;;;5099639;27;20503;-29
2021/01/04 10:23:49;;;;;;;25.57;18.47;;;4.80;99.90;;;;;;5101011;27;20445;-29
2021/01/04 10:26:17;;;;;;;23.40;16.33;;;4.80;99.90;;;;;;5108748;27;20551;-30
2021/01/04 10:28:46;;;;;;;22.60;17.17;;;4.80;99.90;;;;;;5117917;27;20441;-28
2021/01/04 10:31:26;;;;;;;24.07;17.57;;;4.80;99.90;;;;;;5091407;27;20442;-30
2021/01/04 10:34:05;;;;;;;23.20;18.37;;;4.90;99.90;;;;;;5093274;27;20454;-27
2021/01/04 10:36:34;;;;;;;21.30;17.13;;;4.80;99.90;;;;;;5109008;27;20598;-29
2021/01/04 10:39:06;;;;;;;28.63;18.20;;;4.70;99.90;;;;;;5088209;27;20450;-28
2021/01/04 10:41:36;;;;;;;25.67;18.30;;;4.60;99.90;;;;;;5101630;27;20526;-28
2021/01/04 10:44:10;;;;;;;25.77;19.33;;;4.60;99.90;;;;;;5085578;27;20770;-29
2021/01/04 10:46:42;;;;;;;23.27;18.00;;;4.60;99.90;;;;;;5097593;27;20571;-27
2021/01/04 10:49:11;;;;;;;20.53;14.87;;;4.60;99.90;;;;;;5078527;27;20441;-27
2021/01/04 10:51:40;;;;;;;26.90;19.37;;;4.60;99.90;;;;;;5094194;27;20435;-27
2021/01/04 10:54:21;;;;;;;22.13;15.93;;;4.70;99.90;;;;;;5081450;27;21107;-29
2021/01/04 10:57:04;;;;;;;24.07;16.90;;;4.60;99.90;;;;;;5093474;27;20449;-27
2021/01/04 10:59:39;;;;;;;19.90;15.30;;;4.60;99.90;;;;;;5085291;27;20548;-30
2021/01/04 11:02:07;;;;;;;19.83;13.90;;;4.50;99.90;;;;;;5099419;27;20466;-29
2021/01/04 11:04:35;;;;;;;19.23;14.43;;;4.60;99.90;;;;;;5091938;27;20478;-27
2021/01/04 11:07:07;;;;;;;18.70;15.37;;;4.70;99.90;;;;;;5100302;27;21260;-30
2021/01/04 11:09:37;;;;;;;19.40;16.70;;;4.70;99.90;;;;;;5085704;27;20624;-27
2021/01/04 11:12:12;;;;;;;17.33;14.97;;;4.60;99.90;;;;;;5088426;27;20451;-27
2021/01/04 11:14:53;;;;;;;22.90;16.77;;;4.60;99.90;;;;;;5096722;27;20918;-27
2021/01/04 11:17:24;;;;;;;20.30;15.43;;;4.70;99.90;;;;;;5128769;27;20869;-28
2021/01/04 11:20:19;;;;;;;17.53;14.73;;;4.80;99.90;;;;;;5125688;27;20772;-29
2021/01/04 11:23:09;;;;;;;19.00;14.43;;;4.80;99.90;;;;;;5084292;27;20448;-28
2021/01/04 11:25:44;;;;;;;21.60;14.77;;;4.70;99.90;;;;;;5126441;27;20587;-28
2021/01/04 11:28:12;;;;;;;18.03;14.70;;;4.70;99.90;;;;;;5132124;27;20441;-28
2021/01/04 11:30:39;;;;;;;20.83;16.10;;;4.70;99.90;;;;;;5132721;27;20520;-28
2021/01/04 11:33:06;;;;;;;17.57;14.93;;;4.80;99.90;;;;;;5132594;27;20436;-28
2021/01/04 11:35:34;;;;;;;17.13;14.80;;;4.90;99.90;;;;;;5132760;27;20467;-27
2021/01/04 11:38:02;;;;;;;18.60;15.30;;;4.80;99.90;;;;;;5131369;27;20504;-27
2021/01/04 11:40:29;;;;;;;19.60;16.00;;;4.70;99.90;;;;;;5133435;27;20783;-27
2021/01/04 11:42:56;;;;;;;21.20;15.27;;;4.70;99.90;;;;;;5132871;27;20437;-27
2021/01/04 11:45:24;;;;;;;22.17;16.67;;;4.70;99.90;;;;;;5132095;27;20568;-28
2021/01/04 11:47:51;;;;;;;17.43;14.60;;;4.80;99.90;;;;;;5123971;27;20493;-28
2021/01/04 11:50:20;;;;;;;23.40;16.17;;;4.80;99.90;;;;;;5123982;27;20484;-28
2021/01/04 11:52:46;;;;;;;20.43;16.37;;;4.90;99.90;;;;;;5122494;27;20476;-28
2021/01/04 11:55:16;;;;;;;17.67;14.87;;;4.90;99.90;;;;;;5124757;27;20540;-27
2021/01/04 11:57:44;;;;;;;24.90;17.80;;;4.90;99.90;;;;;;5135558;27;20774;-28
2021/01/04 12:00:14;;;;;;;20.73;17.77;;;4.90;99.90;;;;;;5139133;27;20483;-28
2021/01/04 12:02:40;;;;;;;22.07;15.97;;;4.90;99.90;;;;;;5107084;27;20593;-28
2021/01/04 12:05:11;;;;;;;26.33;17.17;;;4.90;99.90;;;;;;5098188;28;20584;-30
2021/01/04 12:07:38;;;;;;;21.17;15.70;;;4.90;99.90;;;;;;5087615;28;20550;-29
2021/01/04 12:10:10;;;;;;;19.20;15.97;;;4.80;99.90;;;;;;5080840;28;20451;-28
2021/01/04 12:12:37;;;;;;;21.03;15.90;;;4.70;99.90;;;;;;5078574;28;21062;-30
2021/01/04 12:15:07;;;;;;;23.27;15.57;;;4.40;99.90;;;;;;5098849;28;20554;-27
2021/01/04 12:17:42;;;;;;;19.87;14.80;;;4.30;99.90;;;;;;5090175;28;20495;-29
2021/01/04 12:20:11;;;;;;;20.80;16.63;;;4.30;99.90;;;;;;5080565;28;20442;-27
2021/01/04 12:22:47;;;;;;;20.20;15.83;;;4.20;99.90;;;;;;5087695;28;20445;-29
2021/01/04 12:25:15;;;;;;;24.60;15.87;;;4.20;99.90;;;;;;5100279;28;20493;-29
2021/01/04 12:27:44;;;;;;;20.80;17.07;;;4.10;99.90;;;;;;5101504;28;20456;-27
2021/01/04 12:30:13;;;;;;;23.77;17.50;;;4.10;99.90;;;;;;5098992;28;20762;-28
2021/01/04 12:32:41;;;;;;;18.70;15.17;;;4.20;99.90;;;;;;5100073;28;20437;-28
2021/01/04 12:35:10;;;;;;;21.27;16.60;;;4.30;99.90;;;;;;5098909;28;20445;-30
2021/01/04 12:37:38;;;;;;;21.10;15.67;;;4.30;99.90;;;;;;5090042;28;20435;-29
2021/01/04 12:40:10;;;;;;;22.63;17.50;;;4.30;99.90;;;;;;5065995;28;20539;-28
2021/01/04 12:42:36;;;;;;;20.83;15.50;;;4.40;99.90;;;;;;5079977;28;21061;-28
2021/01/04 12:45:04;;;;;;;18.67;14.10;;;4.50;99.90;;;;;;5079648;28;20952;-28
2021/01/04 12:47:31;;;;;;;19.07;14.20;;;4.50;99.90;;;;;;5092418;27;20470;-28
2021/01/04 12:49:59;;;;;;;21.33;16.47;;;4.60;99.90;;;;;;5090457;27;20434;-28
2021/01/04 12:52:25;;;;;;;22.60;16.90;;;4.60;99.90;;;;;;5097743;27;20488;-29
2021/01/04 12:54:53;;;;;;;24.63;17.90;;;4.60;99.90;;;;;;5103109;27;20438;-29
2021/01/04 12:57:24;;;;;;;21.30;15.70;;;4.70;99.90;;;;;;5095897;27;20886;-29
2021/01/04 12:59:52;;;;;;;23.60;17.13;;;4.70;99.90;;;;;;5082229;28;21022;-28
2021/01/04 13:02:19;;;;;;;24.10;18.50;;;4.70;99.90;;;;;;5080583;28;20478;-30
2021/01/04 13:04:48;;;;;;;27.00;18.93;;;4.60;99.90;;;;;;5084839;27;20535;-29
2021/01/04 13:07:17;;;;;;;23.80;18.97;;;4.50;99.90;;;;;;5080332;28;20526;-28
2021/01/04 13:09:45;;;;;;;20.80;17.23;;;4.50;99.90;;;;;;5081697;28;20613;-28
2021/01/04 13:12:12;;;;;;;22.00;18.73;;;4.40;99.90;;;;;;5088684;27;20440;-31
2021/01/04 13:14:41;;;;;;;23.67;18.90;;;4.40;99.90;;;;;;5089146;27;20462;-31
2021/01/04 13:17:07;;;;;;;20.43;17.47;;;4.40;99.90;;;;;;5080040;28;20752;-31
2021/01/04 13:19:34;;;;;;;25.83;17.70;;;4.30;99.90;;;;;;5078512;28;20454;-28
2021/01/04 13:22:01;;;;;;;25.27;18.30;;;4.30;99.90;;;;;;5080220;28;21018;-28
2021/01/04 13:24:29;;;;;;;29.47;19.83;;;4.30;99.90;;;;;;5090193;27;20462;-28
2021/01/04 13:27:00;;;;;;;29.37;21.63;;;4.10;99.90;;;;;;5098478;27;21031;-27